Time;durP1;ratioP1;P1;durP2;ratioP2;P2;SDS_P1;SDS_P2;PMS_P1;PMS_P2;Temp;Humidity;BMP_temperature;BMP_pressure;BME280_temperature;BME280_humidity;BME280_pressure;Samples;Min_cycle;Max_cycle;Signal;HPM_P1;HPM_P2
2022/05/16 00:00:48;;;;;;;6.03;3.43;;;;;;;14.21;53.62;101661.84;5080875;28;20172;-65
2022/05/16 00:03:13;;;;;;;3.93;3.63;;;;;;;14.00;53.41;101666.00;5081312;28;20395;-65
2022/05/16 00:05:39;;;;;;;6.60;3.87;;;;;;;14.27;53.04;101660.13;5081992;28;20212;-65
2022/05/16 00:08:04;;;;;;;4.07;3.77;;;;;;;14.47;52.51;101657.69;5081662;28;20184;-66
2022/05/16 00:10:29;;;;;;;3.90;3.50;;;;;;;14.49;52.31;101669.09;5081320;28;20173;-65
2022/05/16 00:12:55;;;;;;;4.50;3.97;;;;;;;14.73;51.50;101666.69;5081441;28;20494;-65
2022/05/16 00:15:21;;;;;;;5.87;3.70;;;;;;;14.49;52.23;101661.22;5081293;28;20172;-65
2022/05/16 00:17:47;;;;;;;5.30;4.10;;;;;;;14.34;52.96;101666.31;5081222;28;20213;-65
2022/05/16 00:20:13;;;;;;;4.50;3.53;;;;;;;14.37;52.85;101665.47;5081600;28;20385;-64
2022/05/16 00:22:38;;;;;;;4.00;3.60;;;;;;;14.68;51.96;101668.38;5080993;28;20172;-65
2022/05/16 00:25:06;;;;;;;4.20;3.80;;;;;;;14.84;51.94;101670.25;5081136;28;20411;-66
2022/05/16 00:27:34;;;;;;;4.00;3.70;;;;;;;14.43;52.91;101671.66;5081401;28;20323;-66
2022/05/16 00:30:01;;;;;;;7.87;4.40;;;;;;;14.34;52.83;101671.56;5114116;28;20860;-65
2022/05/16 00:32:27;;;;;;;5.23;3.73;;;;;;;14.68;51.98;101671.91;5081004;28;20397;-64
2022/05/16 00:34:52;;;;;;;4.63;3.87;;;;;;;13.66;54.63;101673.50;5082096;28;20666;-65
2022/05/16 00:37:17;;;;;;;4.20;3.80;;;;;;;13.78;54.99;101670.13;5081119;28;20173;-65
2022/05/16 00:39:43;;;;;;;5.13;4.00;;;;;;;14.03;54.35;101671.28;5081079;28;20177;-65
2022/05/16 00:42:11;;;;;;;4.30;3.50;;;;;;;13.80;55.18;101674.53;5081298;28;20173;-65
2022/05/16 00:44:36;;;;;;;4.60;4.03;;;;;;;13.87;54.93;101669.34;5080935;28;20287;-65
2022/05/16 00:47:02;;;;;;;4.83;3.90;;;;;;;14.19;54.42;101668.81;5079757;28;20863;-64
2022/05/16 00:49:31;;;;;;;4.70;3.90;;;;;;;13.96;55.41;101658.97;5081235;28;20176;-64
2022/05/16 00:52:30;;;;;;;4.47;3.70;;;;;;;14.22;55.08;101660.97;5081900;28;20390;-67
2022/05/16 00:54:57;;;;;;;8.20;4.30;;;;;;;13.91;55.02;101661.56;5043229;28;20416;-65
2022/05/16 00:57:35;;;;;;;5.50;4.40;;;;;;;14.24;54.78;101659.25;5084365;28;20494;-65
2022/05/16 01:00:09;;;;;;;5.07;4.17;;;;;;;14.19;55.33;101659.19;5083229;28;20656;-65
2022/05/16 01:05:21;;;;;;;4.40;3.97;;;;;;;13.92;55.67;101660.69;5080441;28;20417;-64
2022/05/16 01:07:47;;;;;;;5.33;4.00;;;;;;;14.01;56.10;101652.03;5080603;28;20470;-65
2022/05/16 01:10:18;;;;;;;4.63;4.23;;;;;;;13.88;56.42;101655.38;5080561;28;20173;-65
2022/05/16 01:12:46;;;;;;;5.30;4.20;;;;;;;13.48;57.32;101650.56;5080677;28;20164;-65
2022/05/16 01:15:18;;;;;;;7.70;5.03;;;;;;;13.58;57.52;101643.69;5079535;28;20457;-65
2022/05/16 01:17:44;;;;;;;5.87;3.80;;;;;;;13.58;57.82;101641.09;5079723;28;20548;-66
2022/05/16 01:20:10;;;;;;;4.63;4.10;;;;;;;14.29;56.23;101632.19;5080606;28;20431;-65
2022/05/16 01:23:05;;;;;;;6.00;4.67;;;;;;;13.54;57.86;101629.69;5079892;28;20189;-66
2022/05/16 01:25:30;;;;;;;4.40;4.00;;;;;;;13.67;57.70;101628.09;5066860;28;20430;-66
2022/05/16 01:28:07;;;;;;;5.50;4.17;;;;;;;14.02;56.95;101611.84;5079825;28;20407;-66
2022/05/16 01:30:40;;;;;;;5.33;4.10;;;;;;;13.61;57.60;101620.16;5079332;28;20171;-65
2022/05/16 01:33:06;;;;;;;5.07;4.20;;;;;;;13.23;58.45;101623.16;5079862;28;20378;-66
2022/05/16 01:35:32;;;;;;;5.63;4.30;;;;;;;13.12;58.49;101623.91;5079868;28;20419;-65
2022/05/16 01:40:42;;;;;;;5.80;4.00;;;;;;;13.48;57.63;101612.16;5079455;28;20410;-68
2022/05/16 01:43:09;;;;;;;7.20;4.30;;;;;;;13.08;58.69;101616.88;5079766;28;20403;-65
2022/05/16 01:45:35;;;;;;;7.20;4.60;;;;;;;13.46;57.86;101615.59;5079777;28;20181;-65
2022/05/16 01:48:00;;;;;;;5.63;4.30;;;;;;;13.56;57.04;101606.16;5079767;28;20501;-66
2022/05/16 01:50:26;;;;;;;4.47;4.07;;;;;;;13.27;58.10;101598.75;5079452;28;20442;-65
2022/05/16 01:52:51;;;;;;;5.53;3.97;;;;;;;13.40;56.92;101611.19;5079609;28;20466;-65
2022/05/16 01:55:17;;;;;;;5.30;4.30;;;;;;;13.04;58.64;101612.44;5079416;28;20175;-65
2022/05/16 01:57:43;;;;;;;6.80;3.90;;;;;;;13.32;57.36;101597.97;5078930;28;20199;-66
2022/05/16 02:00:10;;;;;;;5.30;3.90;;;;;;;13.56;57.23;101590.44;5079707;28;20658;-67
2022/05/16 02:02:36;;;;;;;8.13;4.37;;;;;;;13.42;57.80;101596.38;5079111;28;20165;-66
2022/05/16 02:05:02;;;;;;;4.93;3.90;;;;;;;13.02;58.13;101600.22;5079300;28;20841;-65
2022/05/16 02:07:27;;;;;;;7.20;4.27;;;;;;;13.52;57.58;101594.75;5079650;28;20403;-66
2022/05/16 02:09:53;;;;;;;5.07;3.80;;;;;;;13.62;56.67;101593.09;5079146;28;20165;-66
2022/05/16 02:12:18;;;;;;;8.43;5.73;;;;;;;13.36;57.76;101587.56;5079199;28;20161;-66
2022/05/16 02:14:43;;;;;;;4.73;3.83;;;;;;;13.11;58.13;101585.50;5079561;28;20268;-66
2022/05/16 02:17:09;;;;;;;4.63;4.23;;;;;;;13.20;57.73;101591.72;5079043;28;20199;-65
2022/05/16 02:19:34;;;;;;;6.00;3.70;;;;;;;13.47;57.13;101592.06;5078917;28;20604;-67
2022/05/16 02:24:43;;;;;;;7.60;6.10;;;;;;;13.59;56.70;101585.22;5078936;28;20215;-65
2022/05/16 02:27:11;;;;;;;5.43;4.23;;;;;;;13.27;57.65;101581.34;5078828;28;20416;-66
2022/05/16 02:29:37;;;;;;;6.00;4.87;;;;;;;13.59;56.94;101579.97;5078668;28;20225;-66
2022/05/16 02:32:03;;;;;;;6.73;4.93;;;;;;;12.82;58.80;101579.88;5078548;28;20715;-66
2022/05/16 02:34:29;;;;;;;4.30;3.87;;;;;;;12.77;59.16;101587.66;5079168;28;20172;-65
2022/05/16 02:36:54;;;;;;;7.00;4.27;;;;;;;12.98;58.78;101587.06;5078788;28;20549;-66
2022/05/16 02:39:19;;;;;;;4.50;4.10;;;;;;;12.95;58.36;101583.53;5078453;28;20602;-66
2022/05/16 02:41:45;;;;;;;5.90;4.33;;;;;;;13.26;57.88;101586.53;5061319;28;20296;-65
2022/05/16 02:44:11;;;;;;;6.20;4.57;;;;;;;13.05;58.21;101588.03;5077651;28;20188;-65
2022/05/16 02:46:37;;;;;;;6.00;4.80;;;;;;;12.68;59.71;101581.41;5077534;28;20494;-65
2022/05/16 02:49:03;;;;;;;4.70;4.03;;;;;;;12.74;59.67;101576.25;5078959;28;20580;-67
2022/05/16 02:51:28;;;;;;;6.57;4.17;;;;;;;13.11;59.05;101576.75;5078322;28;20196;-65
2022/05/16 02:53:54;;;;;;;5.20;4.23;;;;;;;13.42;58.16;101583.28;5078171;28;20440;-66
2022/05/16 02:56:19;;;;;;;7.10;3.80;;;;;;;13.23;57.74;101570.78;5078654;28;20173;-65
2022/05/16 02:58:44;;;;;;;4.33;3.90;;;;;;;13.06;58.99;101567.97;5078498;28;20200;-65
2022/05/16 03:01:10;;;;;;;6.17;4.50;;;;;;;12.87;59.33;101578.19;5078153;28;20395;-65
2022/05/16 03:03:36;;;;;;;5.57;4.07;;;;;;;13.01;59.84;101567.91;5078290;28;20498;-65
2022/05/16 03:06:02;;;;;;;4.60;4.07;;;;;;;12.79;59.97;101559.75;5078094;28;20411;-66
2022/05/16 03:08:27;;;;;;;6.67;4.60;;;;;;;13.07;59.06;101552.28;5077156;28;20281;-65
2022/05/16 03:10:52;;;;;;;5.90;4.40;;;;;;;13.44;58.10;101552.72;5077912;28;20184;-65
2022/05/16 03:13:18;;;;;;;13.07;4.70;;;;;;;12.96;59.48;101559.09;5077664;28;20219;-65
2022/05/16 03:15:44;;;;;;;6.90;4.30;;;;;;;13.02;59.67;101569.66;5077266;28;20441;-66
2022/05/16 03:18:10;;;;;;;8.93;4.30;;;;;;;12.96;59.23;101567.84;5078114;28;20193;-65
2022/05/16 03:20:36;;;;;;;5.90;4.03;;;;;;;12.85;60.37;101571.19;5078084;28;20821;-66
2022/05/16 03:23:02;;;;;;;5.63;4.40;;;;;;;12.93;59.73;101569.53;5077946;28;20179;-65
2022/05/16 03:25:27;;;;;;;5.73;4.57;;;;;;;13.28;59.31;101556.00;5078269;28;20189;-65
2022/05/16 03:27:52;;;;;;;6.77;4.50;;;;;;;13.03;60.18;101554.81;5077887;28;20570;-65
2022/05/16 03:30:18;;;;;;;6.43;4.33;;;;;;;12.65;60.74;101561.34;5078122;28;20161;-65
2022/05/16 03:32:43;;;;;;;4.50;4.10;;;;;;;12.88;60.52;101558.13;5078329;28;20177;-65
2022/05/16 03:35:08;;;;;;;7.77;4.73;;;;;;;12.86;59.74;101565.97;5078038;28;20190;-65
2022/05/16 03:37:34;;;;;;;5.60;4.50;;;;;;;13.21;59.36;101567.28;5078106;28;20169;-65
2022/05/16 03:42:43;;;;;;;8.27;4.33;;;;;;;12.98;59.80;101554.78;5077772;28;20198;-66
2022/05/16 03:45:10;;;;;;;4.63;4.23;;;;;;;12.59;60.92;101548.16;5077843;28;20427;-66
2022/05/16 03:47:35;;;;;;;4.90;4.40;;;;;;;12.94;60.08;101545.13;5077738;28;20231;-65
2022/05/16 03:50:00;;;;;;;6.10;4.17;;;;;;;13.00;59.20;101539.97;5077843;28;20493;-65
2022/05/16 03:52:25;;;;;;;6.63;4.50;;;;;;;13.66;58.89;101545.09;5078128;28;20208;-66
2022/05/16 03:54:51;;;;;;;5.83;4.00;;;;;;;13.42;59.09;101549.22;5077726;28;20218;-66
2022/05/16 03:57:16;;;;;;;9.07;5.20;;;;;;;14.10;56.97;101555.09;5077674;28;20169;-66
2022/05/16 03:59:41;;;;;;;7.83;4.57;;;;;;;13.83;57.83;101547.91;5078207;28;20250;-66
2022/05/16 04:02:08;;;;;;;4.97;4.37;;;;;;;13.86;57.61;101549.66;5077776;28;20169;-66
2022/05/16 04:04:33;;;;;;;6.20;4.30;;;;;;;14.93;54.61;101540.78;5077575;28;20260;-66
2022/05/16 04:06:59;;;;;;;10.00;4.87;;;;;;;14.73;54.39;101544.19;5078019;28;20836;-65
2022/05/16 04:09:24;;;;;;;7.10;3.90;;;;;;;15.27;53.20;101533.91;5077796;28;20165;-67
2022/05/16 04:11:49;;;;;;;7.00;5.40;;;;;;;15.42;52.51;101530.44;5077685;28;20455;-67
2022/05/16 04:14:15;;;;;;;8.70;4.73;;;;;;;15.98;51.80;101525.28;5078238;28;20173;-66
2022/05/16 04:16:40;;;;;;;5.27;4.33;;;;;;;14.68;54.45;101527.56;5077592;28;20172;-66
2022/05/16 04:19:09;;;;;;;6.57;5.03;;;;;;;15.80;52.01;101515.63;5077487;28;20204;-67
2022/05/16 04:21:38;;;;;;;5.20;4.10;;;;;;;16.28;50.63;101518.25;5081563;28;20172;-65
2022/05/16 04:24:05;;;;;;;5.73;4.30;;;;;;;16.16;51.13;101522.63;5081412;28;20429;-67
2022/05/16 04:26:30;;;;;;;4.57;4.13;;;;;;;16.94;49.19;101527.72;5081128;28;20407;-66
2022/05/16 04:28:57;;;;;;;6.20;4.60;;;;;;;16.58;50.10;101524.31;5081694;28;20460;-66
2022/05/16 04:31:22;;;;;;;6.13;4.93;;;;;;;16.89;48.90;101516.31;5081254;28;20192;-67
2022/05/16 04:33:47;;;;;;;5.00;4.37;;;;;;;18.28;45.42;101504.84;5080966;28;20413;-66
2022/05/16 04:36:13;;;;;;;5.37;4.50;;;;;;;16.28;49.70;101513.84;5081672;28;20176;-67
2022/05/16 04:38:38;;;;;;;6.00;4.90;;;;;;;17.39;47.80;101507.31;5081745;28;20243;-66
2022/05/16 04:43:48;;;;;;;4.60;4.20;;;;;;;17.53;47.10;101516.88;5078885;28;20624;-66
2022/05/16 04:46:13;;;;;;;6.67;4.73;;;;;;;18.02;45.49;101521.78;5077345;28;20434;-66
2022/05/16 04:48:38;;;;;;;4.80;4.10;;;;;;;18.16;45.75;101526.97;5079503;28;20180;-67
2022/05/16 04:51:04;;;;;;;4.63;4.10;;;;;;;17.49;45.93;101530.09;5062412;28;20364;-66
2022/05/16 04:53:29;;;;;;;8.17;4.80;;;;;;;17.77;45.99;101540.44;5065373;28;20489;-66
2022/05/16 04:55:55;;;;;;;8.50;4.63;;;;;;;19.51;42.21;101505.97;5081062;28;20170;-66
2022/05/16 04:58:23;;;;;;;6.83;4.70;;;;;;;18.77;43.67;101514.88;5080581;28;20254;-65
2022/05/16 05:00:48;;;;;;;8.70;4.50;;;;;;;18.36;44.64;101513.56;5079882;28;20508;-67
2022/05/16 05:03:14;;;;;;;5.33;4.70;;;;;;;18.05;45.08;101518.25;5080932;28;20431;-67
2022/05/16 05:05:39;;;;;;;5.47;4.07;;;;;;;18.33;44.19;101509.19;5075567;28;20551;-66
2022/05/16 05:08:04;;;;;;;5.00;4.27;;;;;;;17.37;46.05;101510.84;5060501;28;20185;-67
2022/05/16 05:16:06;;;;;;;7.70;4.43;;;;;;;16.80;47.68;101502.28;5080479;28;20682;-66
2022/05/16 05:18:32;;;;;;;5.33;4.83;;;;;;;18.20;45.30;101488.19;5059554;28;20459;-66
2022/05/16 05:20:57;;;;;;;7.00;4.80;;;;;;;19.45;41.96;101487.53;5077526;28;20435;-67
2022/05/16 05:23:22;;;;;;;6.00;4.10;;;;;;;18.34;44.45;101504.78;5068177;28;20451;-66
2022/05/16 05:25:47;;;;;;;6.47;4.40;;;;;;;18.59;44.05;101497.47;5080019;28;20173;-67
2022/05/16 05:28:13;;;;;;;5.37;4.10;;;;;;;19.62;41.11;101489.91;5079972;28;20180;-67
2022/05/16 05:30:38;;;;;;;6.40;4.50;;;;;;;20.01;41.11;101482.25;5078809;28;20261;-67
2022/05/16 05:33:04;;;;;;;6.40;4.57;;;;;;;18.47;43.86;101487.94;5070192;28;20657;-66
2022/05/16 05:35:29;;;;;;;4.80;4.30;;;;;;;18.98;42.72;101482.06;5075732;28;20251;-66
2022/05/16 05:37:55;;;;;;;6.13;4.70;;;;;;;18.54;44.15;101485.19;5080264;28;20196;-67
2022/05/16 05:40:21;;;;;;;5.70;3.90;;;;;;;20.57;40.00;101475.03;5077845;28;20177;-67
2022/05/16 05:42:47;;;;;;;5.63;4.37;;;;;;;19.35;41.87;101481.53;5059856;28;20489;-66
2022/05/16 05:45:13;;;;;;;4.97;4.20;;;;;;;19.67;42.36;101479.25;5060524;28;20162;-67
2022/05/16 05:47:38;;;;;;;6.43;4.60;;;;;;;20.51;40.24;101471.59;5076877;28;20891;-67
2022/05/16 05:50:06;;;;;;;4.90;4.10;;;;;;;22.05;37.96;101466.31;5073270;28;20177;-66
2022/05/16 05:52:32;;;;;;;8.67;4.57;;;;;;;22.01;37.71;101469.94;5069312;28;20177;-66
2022/05/16 05:54:57;;;;;;;7.60;4.40;;;;;;;21.43;37.70;101467.81;5073851;28;20467;-66
2022/05/16 05:57:24;;;;;;;8.00;4.13;;;;;;;22.74;35.45;101460.84;5076843;28;20467;-68
2022/05/16 05:59:49;;;;;;;4.17;3.77;;;;;;;22.45;36.61;101464.38;5072361;28;20201;-66
2022/05/16 06:02:15;;;;;;;6.13;4.60;;;;;;;20.92;38.10;101478.72;5074644;28;20459;-67
2022/05/16 06:04:40;;;;;;;6.90;4.20;;;;;;;22.03;37.30;101470.78;5079035;28;20227;-67
2022/05/16 06:07:06;;;;;;;8.10;4.23;;;;;;;20.62;39.91;101476.66;5077475;28;20192;-66
2022/05/16 06:09:32;;;;;;;7.97;4.13;;;;;;;22.16;37.23;101474.88;5077965;28;20407;-67
2022/05/16 06:11:59;;;;;;;5.63;4.40;;;;;;;24.06;33.66;101468.22;5078515;28;20443;-66
2022/05/16 06:14:27;;;;;;;5.63;4.07;;;;;;;22.19;36.03;101469.47;5078714;28;20491;-67
2022/05/16 06:16:53;;;;;;;7.40;4.63;;;;;;;21.16;38.49;101472.88;5078463;28;20484;-67
2022/05/16 06:19:18;;;;;;;8.53;4.50;;;;;;;21.35;39.34;101467.13;5066585;28;20472;-67
2022/05/16 06:21:44;;;;;;;5.67;3.90;;;;;;;23.00;35.59;101452.09;5078055;28;20184;-68
2022/05/16 06:25:31;;;;;;;5.80;4.17;;;;;;;22.79;36.42;101456.28;5077851;28;20188;-68
2022/05/16 06:26:54;;;;;;;6.70;4.40;;;;;;;21.00;38.65;101479.44;5078600;28;20569;-67
2022/05/16 06:29:20;;;;;;;4.13;3.80;;;;;;;20.87;39.37;101481.47;5077520;28;20439;-67
2022/05/16 06:31:45;;;;;;;5.83;4.13;;;;;;;23.88;34.66;101473.25;5068899;28;20243;-64
2022/05/16 06:34:11;;;;;;;6.03;4.17;;;;;;;25.64;32.21;101463.06;5073654;28;20555;-64
2022/05/16 06:36:36;;;;;;;9.07;4.23;;;;;;;23.18;34.65;101461.31;5066286;28;20181;-69
2022/05/16 06:39:01;;;;;;;10.30;4.03;;;;;;;21.31;37.53;101482.28;5075696;28;20258;-65
2022/05/16 06:41:27;;;;;;;4.93;4.43;;;;;;;22.21;36.58;101477.38;5070484;28;20174;-66
2022/05/16 06:43:52;;;;;;;4.43;3.87;;;;;;;25.20;32.16;101461.25;5068790;28;20180;-65
2022/05/16 06:46:18;;;;;;;7.40;4.77;;;;;;;24.07;33.48;101459.25;5077026;28;20303;-63
2022/05/16 06:48:43;;;;;;;6.30;3.87;;;;;;;24.62;32.96;101468.88;5074317;28;20200;-66
2022/05/16 06:51:08;;;;;;;4.93;4.43;;;;;;;25.42;32.16;101464.91;5070686;28;20230;-64
2022/05/16 06:53:33;;;;;;;5.90;4.20;;;;;;;23.96;33.89;101464.13;5077677;28;20169;-65
2022/05/16 06:56:00;;;;;;;6.10;4.00;;;;;;;25.71;31.67;101461.00;5072453;28;20419;-65
2022/05/16 06:58:26;;;;;;;9.13;4.40;;;;;;;26.00;30.78;101456.19;5072113;28;20296;-64
2022/05/16 07:00:52;;;;;;;5.93;4.07;;;;;;;24.89;32.31;101462.47;5073276;28;20435;-64
2022/05/16 07:03:18;;;;;;;4.80;4.10;;;;;;;25.52;31.63;101456.44;5077752;28;20469;-64
2022/05/16 07:05:44;;;;;;;6.17;4.07;;;;;;;23.02;34.49;101466.22;5065015;28;20234;-64
2022/05/16 07:08:10;;;;;;;6.67;4.40;;;;;;;23.91;34.20;101469.63;5077562;28;20174;-64
2022/05/16 07:10:36;;;;;;;8.50;4.83;;;;;;;24.07;32.95;101474.38;5078137;28;20462;-66
2022/05/16 07:13:01;;;;;;;5.93;4.20;;;;;;;24.05;33.97;101471.78;5077679;28;20438;-64
2022/05/16 07:15:26;;;;;;;5.03;4.10;;;;;;;21.83;37.88;101472.19;5077641;28;20407;-64
2022/05/16 07:17:52;;;;;;;6.90;4.30;;;;;;;22.11;37.05;101466.16;5074077;28;20205;-64
2022/05/16 07:20:18;;;;;;;14.53;4.53;;;;;;;23.21;36.19;101461.22;5073555;28;20189;-65
2022/05/16 07:22:46;;;;;;;6.30;4.30;;;;;;;25.14;32.09;101460.63;5057672;28;20188;-64
2022/05/16 07:25:12;;;;;;;6.43;4.40;;;;;;;22.83;35.39;101471.22;5060185;28;20708;-65
2022/05/16 07:27:56;;;;;;;5.80;4.00;;;;;;;22.40;36.78;101477.78;5062797;28;20438;-64
2022/05/16 07:30:24;;;;;;;5.03;4.20;;;;;;;24.67;33.03;101467.78;5072073;28;20419;-67
2022/05/16 07:32:50;;;;;;;6.33;4.07;;;;;;;24.91;32.62;101464.22;5065265;28;20780;-65
2022/05/16 07:35:22;;;;;;;6.80;4.43;;;;;;;25.84;31.52;101453.31;5068393;28;20427;-64
2022/05/16 07:37:47;;;;;;;8.07;4.53;;;;;;;24.86;32.60;101462.59;5074729;28;20417;-67
2022/05/16 07:40:14;;;;;;;6.27;4.33;;;;;;;23.45;35.07;101466.69;5076580;28;21648;-65
2022/05/16 07:42:39;;;;;;;7.20;4.43;;;;;;;24.67;33.07;101461.59;5077235;28;20173;-65
2022/05/16 07:45:06;;;;;;;7.57;4.07;;;;;;;21.74;37.11;101471.53;5077061;28;20426;-65
2022/05/16 07:47:32;;;;;;;6.80;4.53;;;;;;;21.46;38.53;101466.88;5076700;28;20224;-66
2022/05/16 07:49:59;;;;;;;8.70;4.73;;;;;;;21.52;38.75;101470.25;5077033;28;20414;-64
2022/05/16 07:52:24;;;;;;;4.47;4.07;;;;;;;22.84;36.39;101449.03;5076659;28;20193;-64
2022/05/16 07:54:50;;;;;;;5.60;4.20;;;;;;;22.66;36.60;101454.91;5078000;28;20430;-65
2022/05/16 07:57:15;;;;;;;5.20;4.67;;;;;;;21.59;38.72;101463.06;5075946;28;20449;-66
2022/05/16 07:59:42;;;;;;;6.70;4.30;;;;;;;21.89;37.83;101452.56;5081288;28;20200;-66
2022/05/16 08:02:08;;;;;;;5.40;4.47;;;;;;;21.95;38.39;101457.72;5081500;28;20165;-66
2022/05/16 08:04:34;;;;;;;6.27;4.40;;;;;;;25.37;32.58;101446.38;5081572;28;20417;-66
2022/05/16 08:07:01;;;;;;;6.53;4.40;;;;;;;26.98;30.04;101431.28;5081526;28;21463;-67
2022/05/16 08:12:11;;;;;;;5.40;4.60;;;;;;;22.55;36.17;101444.59;5081133;28;20548;-65
2022/05/16 08:14:38;;;;;;;7.37;4.03;;;;;;;24.55;33.79;101437.06;5081282;28;20701;-66
2022/05/16 08:17:04;;;;;;;6.00;4.20;;;;;;;24.48;33.70;101443.56;5081665;28;20164;-66
2022/05/16 08:19:33;;;;;;;6.90;4.40;;;;;;;23.65;34.62;101446.50;5080897;28;20466;-65
2022/05/16 08:21:59;;;;;;;5.10;4.10;;;;;;;25.08;32.35;101432.41;5071318;28;20428;-67
2022/05/16 08:24:24;;;;;;;5.73;4.43;;;;;;;25.54;31.92;101429.66;5065618;28;20435;-66
2022/05/16 08:26:49;;;;;;;5.13;4.27;;;;;;;26.32;30.32;101422.72;5077129;28;20180;-66
2022/05/16 08:29:15;;;;;;;5.90;3.90;;;;;;;26.02;29.88;101427.59;5078186;28;20187;-65
2022/05/16 08:31:40;;;;;;;4.60;4.00;;;;;;;24.14;33.50;101430.63;5076492;28;20177;-65
2022/05/16 08:34:06;;;;;;;5.93;4.30;;;;;;;25.78;30.95;101425.09;5060632;28;20185;-65
2022/05/16 08:42:02;;;;;;;5.40;3.87;;;;;;;24.91;32.22;101422.44;5080170;28;20442;-63
2022/05/16 08:44:28;;;;;;;4.40;4.00;;;;;;;24.60;32.85;101426.25;5080615;28;20415;-64
2022/05/16 08:47:20;;;;;;;7.83;3.90;;;;;;;26.33;30.54;101399.53;5080467;28;20558;-65
2022/05/16 08:49:57;;;;;;;6.50;4.13;;;;;;;25.31;31.73;101409.25;5070854;28;20185;-64
2022/05/16 08:52:25;;;;;;;6.43;3.77;;;;;;;24.82;32.58;101415.66;5076641;28;20434;-63
2022/05/16 08:55:10;;;;;;;4.50;3.80;;;;;;;26.66;29.71;101410.44;5075021;28;20427;-65
2022/05/16 08:57:40;;;;;;;7.80;3.83;;;;;;;25.01;31.63;101417.59;5079934;28;20418;-63
2022/05/16 09:00:24;;;;;;;5.20;3.57;;;;;;;24.71;32.50;101420.53;5075105;28;20446;-64
2022/05/16 09:02:50;;;;;;;4.67;3.90;;;;;;;24.77;32.56;101404.28;5078468;28;20431;-67
2022/05/16 09:05:24;;;;;;;10.07;4.63;;;;;;;26.97;29.54;101400.13;5071934;28;20430;-64
2022/05/16 09:07:52;;;;;;;5.40;4.27;;;;;;;25.08;32.43;101405.72;5066502;28;20432;-65
2022/05/16 09:10:31;;;;;;;7.63;4.60;;;;;;;25.01;32.05;101406.91;5066249;28;20441;-66
2022/05/16 09:13:27;;;;;;;4.43;3.80;;;;;;;27.89;28.16;101399.97;5074448;28;20518;-67
2022/05/16 09:16:13;;;;;;;6.30;3.93;;;;;;;25.00;30.93;101413.19;5073040;28;20430;-64
2022/05/16 09:19:23;;;;;;;8.20;4.00;;;;;;;25.36;30.73;101391.28;5079267;28;20524;-60
2022/05/16 09:22:13;;;;;;;6.03;3.77;;;;;;;26.96;29.43;101395.72;5077639;28;20435;-62
2022/05/16 09:24:48;;;;;;;8.20;3.70;;;;;;;27.92;28.34;101388.22;5071105;28;20869;-62
2022/05/16 09:28:34;;;;;;;5.60;3.80;;;;;;;28.05;26.97;101384.81;5075512;28;20470;-61
2022/05/16 09:30:04;;;;;;;6.27;4.13;;;;;;;26.86;29.62;101392.63;5079871;28;20411;-59
2022/05/16 09:32:33;;;;;;;5.50;3.60;;;;;;;28.43;27.68;101388.16;5079850;28;20494;-61
2022/05/16 09:34:59;;;;;;;6.37;4.00;;;;;;;29.61;25.41;101375.13;5077936;28;20448;-60
2022/05/16 09:37:24;;;;;;;4.00;3.37;;;;;;;30.23;25.12;101382.13;5073840;28;20446;-60
2022/05/16 09:39:51;;;;;;;6.23;4.43;;;;;;;30.25;25.20;101369.41;5075392;28;20215;-61
2022/05/16 09:42:21;;;;;;;3.97;3.50;;;;;;;29.93;25.75;101366.94;5074496;28;20211;-57
2022/05/16 09:44:59;;;;;;;8.30;3.50;;;;;;;29.43;25.43;101365.50;5076840;28;20450;-60
2022/05/16 09:47:30;;;;;;;3.90;3.50;;;;;;;26.68;28.31;101373.81;5071156;28;20477;-58
2022/05/16 09:50:20;;;;;;;6.50;4.20;;;;;;;27.38;27.29;101362.41;5078031;28;20867;-59
2022/05/16 09:52:52;;;;;;;3.90;3.47;;;;;;;27.00;27.78;101367.84;5079179;28;20642;-57
2022/05/16 09:55:28;;;;;;;5.57;3.60;;;;;;;26.21;28.89;101371.56;5078721;28;20466;-54
2022/05/16 09:57:55;;;;;;;4.63;3.50;;;;;;;25.55;29.37;101373.53;5079295;28;20519;-58
2022/05/16 10:00:43;;;;;;;4.20;3.50;;;;;;;26.36;28.13;101364.66;5079111;28;20492;-58
2022/05/16 10:03:35;;;;;;;4.27;3.83;;;;;;;25.05;30.47;101376.50;5078462;28;20427;-61
2022/05/16 10:06:05;;;;;;;4.03;3.60;;;;;;;26.83;27.96;101358.88;5079207;28;20414;-61
2022/05/16 10:08:46;;;;;;;4.07;3.67;;;;;;;28.42;26.44;101357.81;5078781;28;20832;-60
2022/05/16 10:11:15;;;;;;;5.43;3.50;;;;;;;28.23;26.82;101366.00;5080984;28;20423;-60
2022/05/16 10:13:40;;;;;;;4.47;3.63;;;;;;;27.25;27.61;101362.13;5078882;28;20750;-61
2022/05/16 10:16:08;;;;;;;6.50;3.70;;;;;;;27.22;27.62;101352.47;5079019;28;20400;-60
2022/05/16 10:18:40;;;;;;;4.80;3.57;;;;;;;27.25;27.83;101350.56;5077857;28;20448;-60
2022/05/16 10:21:11;;;;;;;4.93;4.03;;;;;;;27.03;27.62;101359.66;5078531;28;20434;-61
2022/05/16 10:23:39;;;;;;;5.73;3.60;;;;;;;29.69;25.02;101350.50;5078035;28;20438;-60
2022/05/16 10:26:08;;;;;;;3.50;3.20;;;;;;;27.67;27.42;101363.59;5078030;28;20407;-61
2022/05/16 10:28:39;;;;;;;7.97;3.60;;;;;;;24.83;30.79;101363.16;5078275;28;20422;-61
2022/05/16 10:33:56;;;;;;;6.37;3.60;;;;;;;27.74;26.51;101342.69;5077993;28;20460;-60
2022/05/16 10:36:27;;;;;;;5.20;3.70;;;;;;;27.41;27.33;101335.47;5077569;28;20411;-61
2022/05/16 10:39:11;;;;;;;5.53;3.80;;;;;;;29.37;25.53;101324.59;5078659;28;20458;-61
2022/05/16 10:41:43;;;;;;;3.60;3.30;;;;;;;29.34;25.30;101324.81;5077651;28;20498;-61
2022/05/16 10:44:26;;;;;;;4.87;3.70;;;;;;;27.45;26.37;101349.56;5072192;28;20438;-62
2022/05/16 10:47:14;;;;;;;4.70;3.67;;;;;;;26.55;28.18;101341.44;5077670;28;20451;-61
2022/05/16 10:49:55;;;;;;;6.93;3.70;;;;;;;25.49;29.20;101344.44;5053775;28;20459;-62
2022/05/16 10:52:36;;;;;;;3.63;3.33;;;;;;;25.45;29.05;101358.88;5062726;28;20461;-61
2022/05/16 10:55:02;;;;;;;4.63;3.50;;;;;;;25.93;28.65;101350.56;5057783;28;20422;-67
2022/05/16 10:58:06;;;;;;;5.20;3.77;;;;;;;27.06;27.79;101341.66;5073119;28;20426;-66
2022/05/16 11:00:34;;;;;;;4.63;3.17;;;;;;;27.54;27.20;101347.28;5058339;28;20465;-66
2022/05/16 11:03:27;;;;;;;4.47;3.70;;;;;;;27.51;26.88;101328.69;5074057;28;20419;-65
2022/05/16 11:06:16;;;;;;;4.40;3.77;;;;;;;26.11;28.11;101312.31;5078222;28;20404;-64
2022/05/16 11:09:01;;;;;;;6.87;3.73;;;;;;;24.50;30.97;101353.75;5077199;28;20419;-67
2022/05/16 11:11:32;;;;;;;3.73;3.40;;;;;;;26.72;28.16;101321.94;5077589;28;20438;-66
2022/05/16 11:14:38;;;;;;;6.87;3.60;;;;;;;25.65;29.17;101319.75;5054100;28;20417;-65
2022/05/16 11:17:23;;;;;;;4.80;3.67;;;;;;;25.44;29.97;101327.75;5059794;28;20502;-65
2022/05/16 11:19:57;;;;;;;4.10;3.70;;;;;;;26.21;28.93;101331.50;5073409;28;20471;-65
2022/05/16 11:22:41;;;;;;;6.10;3.93;;;;;;;26.43;28.52;101311.75;5068327;28;20750;-66
2022/05/16 11:25:15;;;;;;;4.60;4.17;;;;;;;26.02;29.06;101300.28;5071179;28;20450;-65
2022/05/16 11:27:57;;;;;;;4.43;3.63;;;;;;;25.39;30.55;101308.41;5077086;28;20701;-64
2022/05/16 11:30:53;;;;;;;4.20;3.80;;;;;;;25.53;30.03;101287.31;5076612;28;20895;-65
2022/05/16 11:33:34;;;;;;;5.67;3.90;;;;;;;25.78;29.86;101285.34;5069755;28;20848;-65
2022/05/16 11:36:05;;;;;;;5.10;4.00;;;;;;;25.04;30.47;101276.06;5077312;28;20502;-65
2022/05/16 11:38:38;;;;;;;7.63;3.80;;;;;;;25.47;30.16;101276.91;5075882;28;20474;-65
2022/05/16 11:41:40;;;;;;;7.33;4.10;;;;;;;25.70;29.88;101294.56;5076516;28;20707;-65
2022/05/16 11:44:20;;;;;;;4.23;3.83;;;;;;;24.80;31.20;101280.63;5076829;28;20419;-68
2022/05/16 11:46:52;;;;;;;5.50;3.80;;;;;;;26.20;29.26;101277.16;5076883;28;20462;-66
2022/05/16 11:49:42;;;;;;;6.73;4.17;;;;;;;25.31;29.70;101303.34;5077121;28;20507;-66
2022/05/16 11:52:36;;;;;;;7.33;3.70;;;;;;;26.44;29.03;101282.28;5077517;28;20746;-65
2022/05/16 12:00:56;;;;;;;4.97;4.33;;;;;;;26.06;30.44;101290.31;5076470;28;20422;-66
2022/05/16 12:03:21;;;;;;;6.40;4.10;;;;;;;26.02;30.13;101289.59;5077301;28;20497;-65
2022/05/16 12:05:52;;;;;;;4.20;3.80;;;;;;;26.75;28.92;101283.47;5077602;28;20501;-65
2022/05/16 12:08:42;;;;;;;4.50;3.67;;;;;;;26.26;29.64;101286.69;5077638;28;20173;-65
2022/05/16 12:11:11;;;;;;;4.53;3.90;;;;;;;25.14;31.10;101280.09;5077680;28;20411;-70